sensor_id;sensor_type;location;lat;lon;timestamp;temperature;humidity
23385;DHT22;11865;45.394;10.978;2023-04-21T00:00:08;12.00;99.90
23385;DHT22;11865;45.394;10.978;2023-04-21T00:02:38;11.90;99.90
23385;DHT22;11865;45.394;10.978;2023-04-21T00:05:07;11.90;99.90
23385;DHT22;11865;45.394;10.978;2023-04-21T00:07:36;11.90;99.90
23385;DHT22;11865;45.394;10.978;2023-04-21T00:10:09;11.90;99.90
23385;DHT22;11865;45.394;10.978;2023-04-21T00:12:37;11.90;99.90
23385;DHT22;11865;45.394;10.978;2023-04-21T00:15:05;11.90;99.90
23385;DHT22;11865;45.394;10.978;2023-04-21T00:17:32;11.90;99.90
23385;DHT22;11865;45.394;10.978;2023-04-21T00:20:00;11.90;99.90
23385;DHT22;11865;45.394;10.978;2023-04-21T00:22:27;11.90;99.90
23385;DHT22;11865;45.394;10.978;2023-04-21T00:24:54;11.90;99.90
23385;DHT22;11865;45.394;10.978;2023-04-21T00:27:22;11.90;99.90
23385;DHT22;11865;45.394;10.978;2023-04-21T00:29:49;11.90;99.90
23385;DHT22;11865;45.394;10.978;2023-04-21T00:32:17;11.90;99.90
23385;DHT22;11865;45.394;10.978;2023-04-21T00:34:44;11.90;99.90
23385;DHT22;11865;45.394;10.978;2023-04-21T00:37:12;12.00;99.90
23385;DHT22;11865;45.394;10.978;2023-04-21T00:39:39;12.00;99.90
23385;DHT22;11865;45.394;10.978;2023-04-21T00:42:06;12.10;99.90
23385;DHT22;11865;45.394;10.978;2023-04-21T00:44:35;12.10;99.90
23385;DHT22;11865;45.394;10.978;2023-04-21T00:47:03;12.20;99.90
23385;DHT22;11865;45.394;10.978;2023-04-21T00:49:31;12.20;99.90
23385;DHT22;11865;45.394;10.978;2023-04-21T00:51:59;12.20;99.90
23385;DHT22;11865;45.394;10.978;2023-04-21T00:54:26;12.20;99.90
23385;DHT22;11865;45.394;10.978;2023-04-21T00:56:54;12.30;99.90
23385;DHT22;11865;45.394;10.978;2023-04-21T00:59:24;12.30;99.90
23385;DHT22;11865;45.394;10.978;2023-04-21T01:01:52;12.30;99.90
23385;DHT22;11865;45.394;10.978;2023-04-21T01:04:20;12.40;99.90
23385;DHT22;11865;45.394;10.978;2023-04-21T01:06:48;12.40;99.90
23385;DHT22;11865;45.394;10.978;2023-04-21T01:09:15;12.40;99.90
23385;DHT22;11865;45.394;10.978;2023-04-21T01:12:00;12.50;99.90
23385;DHT22;11865;45.394;10.978;2023-04-21T01:14:28;12.60;99.90
23385;DHT22;11865;45.394;10.978;2023-04-21T01:16:56;12.60;99.90
23385;DHT22;11865;45.394;10.978;2023-04-21T01:19:24;12.60;99.90
23385;DHT22;11865;45.394;10.978;2023-04-21T01:21:52;12.70;99.90
23385;DHT22;11865;45.394;10.978;2023-04-21T01:24:23;12.80;99.90
23385;DHT22;11865;45.394;10.978;2023-04-21T01:26:51;12.80;99.90
23385;DHT22;11865;45.394;10.978;2023-04-21T01:29:18;12.80;99.90
23385;DHT22;11865;45.394;10.978;2023-04-21T01:31:46;12.80;99.90
23385;DHT22;11865;45.394;10.978;2023-04-21T01:34:14;12.80;99.90
23385;DHT22;11865;45.394;10.978;2023-04-21T01:36:44;12.80;99.90
23385;DHT22;11865;45.394;10.978;2023-04-21T01:39:11;12.80;99.90
23385;DHT22;11865;45.394;10.978;2023-04-21T01:41:39;12.80;99.90
23385;DHT22;11865;45.394;10.978;2023-04-21T01:44:06;12.80;99.90
23385;DHT22;11865;45.394;10.978;2023-04-21T01:46:34;12.90;99.90
23385;DHT22;11865;45.394;10.978;2023-04-21T01:49:02;12.80;99.90
23385;DHT22;11865;45.394;10.978;2023-04-21T01:51:32;12.80;99.90
23385;DHT22;11865;45.394;10.978;2023-04-21T01:53:59;12.80;99.90
23385;DHT22;11865;45.394;10.978;2023-04-21T01:56:27;12.80;99.90
23385;DHT22;11865;45.394;10.978;2023-04-21T01:58:55;12.80;99.90
23385;DHT22;11865;45.394;10.978;2023-04-21T02:01:23;12.80;99.90
23385;DHT22;11865;45.394;10.978;2023-04-21T02:03:50;12.80;99.90
23385;DHT22;11865;45.394;10.978;2023-04-21T02:06:18;12.90;99.90
23385;DHT22;11865;45.394;10.978;2023-04-21T02:08:45;12.90;99.90
23385;DHT22;11865;45.394;10.978;2023-04-21T02:11:13;12.80;99.90
23385;DHT22;11865;45.394;10.978;2023-04-21T02:13:41;12.80;99.90
23385;DHT22;11865;45.394;10.978;2023-04-21T02:16:08;12.90;99.90
23385;DHT22;11865;45.394;10.978;2023-04-21T02:18:40;12.90;99.90
23385;DHT22;11865;45.394;10.978;2023-04-21T02:21:07;12.90;99.90
23385;DHT22;11865;45.394;10.978;2023-04-21T02:23:35;13.00;99.90
23385;DHT22;11865;45.394;10.978;2023-04-21T02:26:02;13.10;99.90
23385;DHT22;11865;45.394;10.978;2023-04-21T02:28:31;13.10;99.90
23385;DHT22;11865;45.394;10.978;2023-04-21T02:30:59;13.00;99.90
23385;DHT22;11865;45.394;10.978;2023-04-21T02:33:26;13.00;99.90
23385;DHT22;11865;45.394;10.978;2023-04-21T02:35:54;13.00;99.90
23385;DHT22;11865;45.394;10.978;2023-04-21T02:38:23;13.00;99.90
23385;DHT22;11865;45.394;10.978;2023-04-21T02:40:51;13.00;99.90
23385;DHT22;11865;45.394;10.978;2023-04-21T02:43:18;13.00;99.90
23385;DHT22;11865;45.394;10.978;2023-04-21T02:45:48;13.00;99.90
23385;DHT22;11865;45.394;10.978;2023-04-21T02:48:15;13.10;99.90
23385;DHT22;11865;45.394;10.978;2023-04-21T02:50:49;13.10;99.90
23385;DHT22;11865;45.394;10.978;2023-04-21T02:53:17;13.10;99.90
23385;DHT22;11865;45.394;10.978;2023-04-21T02:55:44;13.10;99.90
23385;DHT22;11865;45.394;10.978;2023-04-21T02:58:13;13.10;99.90
23385;DHT22;11865;45.394;10.978;2023-04-21T03:00:41;13.10;99.90
23385;DHT22;11865;45.394;10.978;2023-04-21T03:03:08;13.10;99.90
23385;DHT22;11865;45.394;10.978;2023-04-21T03:05:36;13.10;99.90
23385;DHT22;11865;45.394;10.978;2023-04-21T03:08:05;13.10;99.90
23385;DHT22;11865;45.394;10.978;2023-04-21T03:10:36;13.10;99.90
23385;DHT22;11865;45.394;10.978;2023-04-21T03:13:03;13.10;99.90
23385;DHT22;11865;45.394;10.978;2023-04-21T03:15:31;13.10;99.90
23385;DHT22;11865;45.394;10.978;2023-04-21T03:18:00;13.00;99.90
23385;DHT22;11865;45.394;10.978;2023-04-21T03:20:28;13.20;99.90
23385;DHT22;11865;45.394;10.978;2023-04-21T03:22:55;13.30;99.90
23385;DHT22;11865;45.394;10.978;2023-04-21T03:25:23;13.30;99.90
23385;DHT22;11865;45.394;10.978;2023-04-21T03:27:50;13.30;99.90
23385;DHT22;11865;45.394;10.978;2023-04-21T03:30:19;13.20;99.90
23385;DHT22;11865;45.394;10.978;2023-04-21T03:32:47;13.30;99.90
23385;DHT22;11865;45.394;10.978;2023-04-21T03:35:14;13.20;99.90
23385;DHT22;11865;45.394;10.978;2023-04-21T03:37:42;13.20;99.90
23385;DHT22;11865;45.394;10.978;2023-04-21T03:40:10;13.20;99.90
23385;DHT22;11865;45.394;10.978;2023-04-21T03:42:37;13.20;99.90
23385;DHT22;11865;45.394;10.978;2023-04-21T03:45:06;13.20;99.90
23385;DHT22;11865;45.394;10.978;2023-04-21T03:47:34;13.20;99.90
23385;DHT22;11865;45.394;10.978;2023-04-21T03:50:03;13.10;99.90
23385;DHT22;11865;45.394;10.978;2023-04-21T03:52:32;13.00;99.90
23385;DHT22;11865;45.394;10.978;2023-04-21T03:54:59;13.00;99.90
23385;DHT22;11865;45.394;10.978;2023-04-21T03:57:27;12.90;99.90
23385;DHT22;11865;45.394;10.978;2023-04-21T03:59:55;12.80;99.90
23385;DHT22;11865;45.394;10.978;2023-04-21T04:02:22;12.80;99.90
23385;DHT22;11865;45.394;10.978;2023-04-21T04:04:50;12.70;99.90
23385;DHT22;11865;45.394;10.978;2023-04-21T04:07:17;12.60;99.90
23385;DHT22;11865;45.394;10.978;2023-04-21T04:09:45;12.60;99.90
23385;DHT22;11865;45.394;10.978;2023-04-21T04:12:12;12.50;99.90
23385;DHT22;11865;45.394;10.978;2023-04-21T04:14:40;12.50;99.90
23385;DHT22;11865;45.394;10.978;2023-04-21T04:17:07;12.40;99.90
23385;DHT22;11865;45.394;10.978;2023-04-21T04:19:35;12.40;99.90
23385;DHT22;11865;45.394;10.978;2023-04-21T04:22:02;12.40;99.90
23385;DHT22;11865;45.394;10.978;2023-04-21T04:24:32;12.40;99.90
23385;DHT22;11865;45.394;10.978;2023-04-21T04:26:59;12.40;99.90
23385;DHT22;11865;45.394;10.978;2023-04-21T04:29:29;12.40;99.90
23385;DHT22;11865;45.394;10.978;2023-04-21T04:31:56;12.40;99.90
23385;DHT22;11865;45.394;10.978;2023-04-21T04:34:24;12.40;99.90
23385;DHT22;11865;45.394;10.978;2023-04-21T04:36:52;12.50;99.90
23385;DHT22;11865;45.394;10.978;2023-04-21T04:39:19;12.50;99.90
23385;DHT22;11865;45.394;10.978;2023-04-21T04:41:48;12.60;99.90
23385;DHT22;11865;45.394;10.978;2023-04-21T04:44:15;12.60;99.90
23385;DHT22;11865;45.394;10.978;2023-04-21T04:46:44;12.70;99.90
23385;DHT22;11865;45.394;10.978;2023-04-21T04:49:12;12.80;99.90
23385;DHT22;11865;45.394;10.978;2023-04-21T04:51:39;12.90;99.90
23385;DHT22;11865;45.394;10.978;2023-04-21T04:54:07;13.00;99.90
23385;DHT22;11865;45.394;10.978;2023-04-21T04:56:34;13.10;99.90
23385;DHT22;11865;45.394;10.978;2023-04-21T04:59:01;13.20;99.90
23385;DHT22;11865;45.394;10.978;2023-04-21T05:01:29;13.30;99.90
23385;DHT22;11865;45.394;10.978;2023-04-21T05:03:57;13.30;99.90
23385;DHT22;11865;45.394;10.978;2023-04-21T05:06:25;13.40;99.90
23385;DHT22;11865;45.394;10.978;2023-04-21T05:08:52;13.50;99.90
23385;DHT22;11865;45.394;10.978;2023-04-21T05:11:19;13.50;99.90
23385;DHT22;11865;45.394;10.978;2023-04-21T05:13:47;13.60;99.90
23385;DHT22;11865;45.394;10.978;2023-04-21T05:16:14;13.60;99.90
23385;DHT22;11865;45.394;10.978;2023-04-21T05:18:42;13.60;99.90
23385;DHT22;11865;45.394;10.978;2023-04-21T05:21:09;13.70;99.90
23385;DHT22;11865;45.394;10.978;2023-04-21T05:23:37;13.70;99.90
23385;DHT22;11865;45.394;10.978;2023-04-21T05:26:04;13.70;99.90
23385;DHT22;11865;45.394;10.978;2023-04-21T05:28:34;13.60;99.90
23385;DHT22;11865;45.394;10.978;2023-04-21T05:31:02;13.60;99.90
23385;DHT22;11865;45.394;10.978;2023-04-21T05:33:30;13.60;99.90
23385;DHT22;11865;45.394;10.978;2023-04-21T05:35:58;13.60;99.90
23385;DHT22;11865;45.394;10.978;2023-04-21T05:38:25;13.60;99.90
23385;DHT22;11865;45.394;10.978;2023-04-21T05:40:54;13.70;99.90
23385;DHT22;11865;45.394;10.978;2023-04-21T05:43:22;13.90;99.90
23385;DHT22;11865;45.394;10.978;2023-04-21T05:45:49;14.00;99.90
23385;DHT22;11865;45.394;10.978;2023-04-21T05:48:17;14.00;99.90
23385;DHT22;11865;45.394;10.978;2023-04-21T05:50:44;14.00;99.90
23385;DHT22;11865;45.394;10.978;2023-04-21T05:53:12;14.10;99.90
23385;DHT22;11865;45.394;10.978;2023-04-21T05:55:39;14.10;99.90
23385;DHT22;11865;45.394;10.978;2023-04-21T05:58:07;14.30;99.90
23385;DHT22;11865;45.394;10.978;2023-04-21T06:00:34;14.50;99.90
23385;DHT22;11865;45.394;10.978;2023-04-21T06:03:02;14.90;99.90
23385;DHT22;11865;45.394;10.978;2023-04-21T06:05:29;16.10;99.90
23385;DHT22;11865;45.394;10.978;2023-04-21T06:07:57;16.20;99.90
23385;DHT22;11865;45.394;10.978;2023-04-21T06:10:25;16.70;99.90
23385;DHT22;11865;45.394;10.978;2023-04-21T06:12:52;17.60;99.90
23385;DHT22;11865;45.394;10.978;2023-04-21T06:15:19;18.40;99.90
23385;DHT22;11865;45.394;10.978;2023-04-21T06:17:52;18.30;99.90
23385;DHT22;11865;45.394;10.978;2023-04-21T06:20:20;18.00;99.90
23385;DHT22;11865;45.394;10.978;2023-04-21T06:22:47;17.50;99.90
23385;DHT22;11865;45.394;10.978;2023-04-21T06:25:15;17.50;99.90
23385;DHT22;11865;45.394;10.978;2023-04-21T06:27:43;17.40;99.90
23385;DHT22;11865;45.394;10.978;2023-04-21T06:30:12;17.10;99.90
23385;DHT22;11865;45.394;10.978;2023-04-21T06:32:39;16.80;99.90
23385;DHT22;11865;45.394;10.978;2023-04-21T06:35:07;16.50;99.90
23385;DHT22;11865;45.394;10.978;2023-04-21T06:37:35;16.60;99.90
23385;DHT22;11865;45.394;10.978;2023-04-21T06:40:03;16.70;99.90
23385;DHT22;11865;45.394;10.978;2023-04-21T06:42:30;17.70;99.90
23385;DHT22;11865;45.394;10.978;2023-04-21T06:44:57;19.20;99.80
23385;DHT22;11865;45.394;10.978;2023-04-21T06:47:25;19.40;97.10
23385;DHT22;11865;45.394;10.978;2023-04-21T06:49:53;20.00;96.90
23385;DHT22;11865;45.394;10.978;2023-04-21T06:52:21;20.60;95.20
23385;DHT22;11865;45.394;10.978;2023-04-21T06:54:48;20.80;94.50
23385;DHT22;11865;45.394;10.978;2023-04-21T06:57:15;19.30;97.30
23385;DHT22;11865;45.394;10.978;2023-04-21T06:59:43;18.70;97.80
23385;DHT22;11865;45.394;10.978;2023-04-21T07:02:11;18.60;97.60
23385;DHT22;11865;45.394;10.978;2023-04-21T07:04:38;19.50;96.20
23385;DHT22;11865;45.394;10.978;2023-04-21T07:07:06;19.30;96.80
23385;DHT22;11865;45.394;10.978;2023-04-21T07:09:33;18.70;97.90
23385;DHT22;11865;45.394;10.978;2023-04-21T07:12:01;17.60;98.20
23385;DHT22;11865;45.394;10.978;2023-04-21T07:14:29;17.00;99.80
23385;DHT22;11865;45.394;10.978;2023-04-21T07:16:56;17.20;99.90
23385;DHT22;11865;45.394;10.978;2023-04-21T07:19:24;17.60;99.10
23385;DHT22;11865;45.394;10.978;2023-04-21T07:21:51;17.70;98.80
23385;DHT22;11865;45.394;10.978;2023-04-21T07:24:19;17.60;98.90
23385;DHT22;11865;45.394;10.978;2023-04-21T07:26:46;17.60;98.70
23385;DHT22;11865;45.394;10.978;2023-04-21T07:29:13;18.30;98.90
23385;DHT22;11865;45.394;10.978;2023-04-21T07:31:41;18.40;98.20
23385;DHT22;11865;45.394;10.978;2023-04-21T07:34:08;18.80;97.20
23385;DHT22;11865;45.394;10.978;2023-04-21T07:36:36;18.70;97.00
23385;DHT22;11865;45.394;10.978;2023-04-21T07:39:04;18.90;96.60
23385;DHT22;11865;45.394;10.978;2023-04-21T07:41:31;19.40;95.80
23385;DHT22;11865;45.394;10.978;2023-04-21T07:43:59;20.00;95.60
23385;DHT22;11865;45.394;10.978;2023-04-21T07:46:26;20.50;94.90
23385;DHT22;11865;45.394;10.978;2023-04-21T07:48:59;19.30;95.00
23385;DHT22;11865;45.394;10.978;2023-04-21T07:51:30;19.50;95.10
23385;DHT22;11865;45.394;10.978;2023-04-21T07:53:58;19.80;94.90
23385;DHT22;11865;45.394;10.978;2023-04-21T07:56:25;19.60;94.50
23385;DHT22;11865;45.394;10.978;2023-04-21T07:58:53;19.50;93.60
23385;DHT22;11865;45.394;10.978;2023-04-21T08:01:21;19.50;94.40
23385;DHT22;11865;45.394;10.978;2023-04-21T08:03:49;18.80;96.60
23385;DHT22;11865;45.394;10.978;2023-04-21T08:06:17;19.10;97.00
23385;DHT22;11865;45.394;10.978;2023-04-21T08:08:45;19.20;95.70
23385;DHT22;11865;45.394;10.978;2023-04-21T08:11:13;19.30;96.10
23385;DHT22;11865;45.394;10.978;2023-04-21T08:13:40;19.10;96.30
23385;DHT22;11865;45.394;10.978;2023-04-21T08:16:07;18.90;96.00
23385;DHT22;11865;45.394;10.978;2023-04-21T08:18:35;18.80;95.80
23385;DHT22;11865;45.394;10.978;2023-04-21T08:21:03;18.50;95.60
23385;DHT22;11865;45.394;10.978;2023-04-21T08:23:30;18.80;95.90
23385;DHT22;11865;45.394;10.978;2023-04-21T08:26:01;18.40;95.70
23385;DHT22;11865;45.394;10.978;2023-04-21T08:28:28;18.70;96.30
23385;DHT22;11865;45.394;10.978;2023-04-21T08:30:56;18.30;95.80
23385;DHT22;11865;45.394;10.978;2023-04-21T08:33:23;18.20;96.10
23385;DHT22;11865;45.394;10.978;2023-04-21T08:35:51;18.10;97.00
23385;DHT22;11865;45.394;10.978;2023-04-21T08:38:33;18.30;96.80
23385;DHT22;11865;45.394;10.978;2023-04-21T08:41:02;18.70;96.80
23385;DHT22;11865;45.394;10.978;2023-04-21T08:43:30;18.50;96.60
23385;DHT22;11865;45.394;10.978;2023-04-21T08:45:58;18.00;97.00
23385;DHT22;11865;45.394;10.978;2023-04-21T08:48:27;17.90;96.80
23385;DHT22;11865;45.394;10.978;2023-04-21T08:50:55;18.10;97.30
23385;DHT22;11865;45.394;10.978;2023-04-21T08:53:24;18.10;96.70
23385;DHT22;11865;45.394;10.978;2023-04-21T08:55:52;18.00;96.70
23385;DHT22;11865;45.394;10.978;2023-04-21T08:58:36;17.90;96.80
23385;DHT22;11865;45.394;10.978;2023-04-21T09:01:04;18.00;97.20
23385;DHT22;11865;45.394;10.978;2023-04-21T09:03:32;18.40;97.50
23385;DHT22;11865;45.394;10.978;2023-04-21T09:06:01;17.90;96.70
23385;DHT22;11865;45.394;10.978;2023-04-21T09:08:32;18.10;97.80
23385;DHT22;11865;45.394;10.978;2023-04-21T09:11:00;18.10;97.70
23385;DHT22;11865;45.394;10.978;2023-04-21T09:13:29;18.20;97.40
23385;DHT22;11865;45.394;10.978;2023-04-21T09:15:58;18.10;96.70
23385;DHT22;11865;45.394;10.978;2023-04-21T09:18:28;18.10;97.30
23385;DHT22;11865;45.394;10.978;2023-04-21T09:21:11;17.90;97.60
23385;DHT22;11865;45.394;10.978;2023-04-21T09:23:50;18.00;98.30
23385;DHT22;11865;45.394;10.978;2023-04-21T09:26:19;18.40;98.50
23385;DHT22;11865;45.394;10.978;2023-04-21T09:28:51;18.10;97.30
23385;DHT22;11865;45.394;10.978;2023-04-21T09:31:21;18.20;97.10
23385;DHT22;11865;45.394;10.978;2023-04-21T09:33:55;18.20;97.50
23385;DHT22;11865;45.394;10.978;2023-04-21T09:36:28;18.10;97.30
23385;DHT22;11865;45.394;10.978;2023-04-21T09:38:59;18.10;97.50
23385;DHT22;11865;45.394;10.978;2023-04-21T09:41:31;18.20;97.40
23385;DHT22;11865;45.394;10.978;2023-04-21T09:43:59;18.30;98.20
23385;DHT22;11865;45.394;10.978;2023-04-21T09:46:35;18.20;97.70
23385;DHT22;11865;45.394;10.978;2023-04-21T09:49:03;18.40;98.20
23385;DHT22;11865;45.394;10.978;2023-04-21T09:51:32;18.80;96.70
23385;DHT22;11865;45.394;10.978;2023-04-21T09:54:13;18.70;96.60
23385;DHT22;11865;45.394;10.978;2023-04-21T09:57:01;18.80;96.90
23385;DHT22;11865;45.394;10.978;2023-04-21T09:59:33;18.90;97.30
23385;DHT22;11865;45.394;10.978;2023-04-21T10:02:05;18.40;96.60
23385;DHT22;11865;45.394;10.978;2023-04-21T10:04:35;18.50;96.90
23385;DHT22;11865;45.394;10.978;2023-04-21T10:07:03;18.40;97.70
23385;DHT22;11865;45.394;10.978;2023-04-21T10:09:40;18.60;97.20
23385;DHT22;11865;45.394;10.978;2023-04-21T10:12:09;18.70;96.70
23385;DHT22;11865;45.394;10.978;2023-04-21T10:14:37;18.70;97.00
23385;DHT22;11865;45.394;10.978;2023-04-21T10:17:07;18.40;96.60
23385;DHT22;11865;45.394;10.978;2023-04-21T10:19:36;18.60;96.60
23385;DHT22;11865;45.394;10.978;2023-04-21T10:22:07;18.70;95.90
23385;DHT22;11865;45.394;10.978;2023-04-21T10:24:40;18.80;95.90
23385;DHT22;11865;45.394;10.978;2023-04-21T10:27:09;18.60;95.90
23385;DHT22;11865;45.394;10.978;2023-04-21T10:29:37;18.90;96.80
23385;DHT22;11865;45.394;10.978;2023-04-21T10:32:40;18.80;96.40
23385;DHT22;11865;45.394;10.978;2023-04-21T10:35:21;18.30;96.50
23385;DHT22;11865;45.394;10.978;2023-04-21T10:37:50;18.60;96.40
23385;DHT22;11865;45.394;10.978;2023-04-21T10:40:33;18.50;96.40
23385;DHT22;11865;45.394;10.978;2023-04-21T10:45:57;18.80;96.90
23385;DHT22;11865;45.394;10.978;2023-04-21T10:48:25;18.70;97.40
23385;DHT22;11865;45.394;10.978;2023-04-21T10:50:52;18.50;96.60
23385;DHT22;11865;45.394;10.978;2023-04-21T10:53:24;18.70;97.60
23385;DHT22;11865;45.394;10.978;2023-04-21T10:55:52;18.70;96.10
23385;DHT22;11865;45.394;10.978;2023-04-21T10:58:21;18.90;96.30
23385;DHT22;11865;45.394;10.978;2023-04-21T11:00:53;18.60;96.00
23385;DHT22;11865;45.394;10.978;2023-04-21T11:03:21;18.70;96.40
23385;DHT22;11865;45.394;10.978;2023-04-21T11:05:49;18.60;95.50
23385;DHT22;11865;45.394;10.978;2023-04-21T11:08:16;18.70;95.80
23385;DHT22;11865;45.394;10.978;2023-04-21T11:10:54;18.60;95.40
23385;DHT22;11865;45.394;10.978;2023-04-21T11:13:26;18.90;95.80
23385;DHT22;11865;45.394;10.978;2023-04-21T11:16:02;19.00;96.10
23385;DHT22;11865;45.394;10.978;2023-04-21T11:18:40;19.00;95.00
23385;DHT22;11865;45.394;10.978;2023-04-21T11:21:12;19.20;95.20
23385;DHT22;11865;45.394;10.978;2023-04-21T11:23:55;19.10;94.60
23385;DHT22;11865;45.394;10.978;2023-04-21T11:26:34;18.60;94.50
23385;DHT22;11865;45.394;10.978;2023-04-21T11:29:06;18.90;95.30
23385;DHT22;11865;45.394;10.978;2023-04-21T11:31:34;19.10;94.70
23385;DHT22;11865;45.394;10.978;2023-04-21T11:34:04;19.00;94.60
23385;DHT22;11865;45.394;10.978;2023-04-21T11:36:35;19.10;95.30
23385;DHT22;11865;45.394;10.978;2023-04-21T11:39:12;19.40;95.20
23385;DHT22;11865;45.394;10.978;2023-04-21T11:41:48;19.60;93.90
23385;DHT22;11865;45.394;10.978;2023-04-21T11:44:33;19.40;94.20
23385;DHT22;11865;45.394;10.978;2023-04-21T11:47:15;19.20;94.00
23385;DHT22;11865;45.394;10.978;2023-04-21T11:50:00;19.20;95.10
23385;DHT22;11865;45.394;10.978;2023-04-21T11:52:34;19.00;93.30
23385;DHT22;11865;45.394;10.978;2023-04-21T11:55:09;19.00;93.10
23385;DHT22;11865;45.394;10.978;2023-04-21T11:57:39;19.00;94.10
23385;DHT22;11865;45.394;10.978;2023-04-21T12:00:09;19.30;94.30
23385;DHT22;11865;45.394;10.978;2023-04-21T12:02:38;19.50;94.30
23385;DHT22;11865;45.394;10.978;2023-04-21T12:05:06;19.50;92.80
23385;DHT22;11865;45.394;10.978;2023-04-21T12:07:42;19.30;92.80
23385;DHT22;11865;45.394;10.978;2023-04-21T12:10:12;19.50;94.00
23385;DHT22;11865;45.394;10.978;2023-04-21T12:12:41;19.40;92.50
23385;DHT22;11865;45.394;10.978;2023-04-21T12:15:10;19.80;94.20
23385;DHT22;11865;45.394;10.978;2023-04-21T12:17:44;19.60;92.60
23385;DHT22;11865;45.394;10.978;2023-04-21T12:20:14;19.80;92.90
23385;DHT22;11865;45.394;10.978;2023-04-21T12:22:42;19.80;93.60
23385;DHT22;11865;45.394;10.978;2023-04-21T12:25:10;19.80;93.10
23385;DHT22;11865;45.394;10.978;2023-04-21T12:28:08;19.90;92.80
23385;DHT22;11865;45.394;10.978;2023-04-21T12:30:34;20.20;92.50
23385;DHT22;11865;45.394;10.978;2023-04-21T12:33:07;19.90;92.40
23385;DHT22;11865;45.394;10.978;2023-04-21T12:35:35;19.60;92.20
23385;DHT22;11865;45.394;10.978;2023-04-21T12:38:02;20.10;92.40
23385;DHT22;11865;45.394;10.978;2023-04-21T12:40:29;20.10;92.90
23385;DHT22;11865;45.394;10.978;2023-04-21T12:42:57;20.00;93.20
23385;DHT22;11865;45.394;10.978;2023-04-21T12:45:24;20.00;92.60
23385;DHT22;11865;45.394;10.978;2023-04-21T12:47:52;20.20;92.20
23385;DHT22;11865;45.394;10.978;2023-04-21T12:50:20;20.10;92.30
23385;DHT22;11865;45.394;10.978;2023-04-21T12:52:47;20.40;92.00
23385;DHT22;11865;45.394;10.978;2023-04-21T12:55:17;20.20;92.50
23385;DHT22;11865;45.394;10.978;2023-04-21T12:57:44;20.20;92.40
23385;DHT22;11865;45.394;10.978;2023-04-21T13:00:12;20.30;92.90
23385;DHT22;11865;45.394;10.978;2023-04-21T13:02:41;20.40;92.20
23385;DHT22;11865;45.394;10.978;2023-04-21T13:05:09;20.30;91.80
23385;DHT22;11865;45.394;10.978;2023-04-21T13:07:38;20.00;91.90
23385;DHT22;11865;45.394;10.978;2023-04-21T13:10:06;20.20;92.30
23385;DHT22;11865;45.394;10.978;2023-04-21T13:12:34;19.80;92.80
23385;DHT22;11865;45.394;10.978;2023-04-21T13:15:02;19.40;93.00
23385;DHT22;11865;45.394;10.978;2023-04-21T13:17:30;19.50;92.80
23385;DHT22;11865;45.394;10.978;2023-04-21T13:19:57;19.50;93.40
23385;DHT22;11865;45.394;10.978;2023-04-21T13:22:25;19.80;92.40
23385;DHT22;11865;45.394;10.978;2023-04-21T13:24:52;19.70;92.60
23385;DHT22;11865;45.394;10.978;2023-04-21T13:27:20;19.30;93.20
23385;DHT22;11865;45.394;10.978;2023-04-21T13:29:47;19.40;93.50
23385;DHT22;11865;45.394;10.978;2023-04-21T13:32:15;19.40;92.90
23385;DHT22;11865;45.394;10.978;2023-04-21T13:34:42;19.50;92.20
23385;DHT22;11865;45.394;10.978;2023-04-21T13:37:10;19.70;92.40
23385;DHT22;11865;45.394;10.978;2023-04-21T13:39:42;19.80;92.70
23385;DHT22;11865;45.394;10.978;2023-04-21T13:42:09;20.20;91.60
23385;DHT22;11865;45.394;10.978;2023-04-21T13:44:37;20.40;91.80
23385;DHT22;11865;45.394;10.978;2023-04-21T13:47:05;20.40;92.20
23385;DHT22;11865;45.394;10.978;2023-04-21T13:49:35;20.60;91.40
23385;DHT22;11865;45.394;10.978;2023-04-21T13:52:02;20.30;90.90
23385;DHT22;11865;45.394;10.978;2023-04-21T13:54:30;20.00;91.60
23385;DHT22;11865;45.394;10.978;2023-04-21T13:56:58;19.80;91.80
23385;DHT22;11865;45.394;10.978;2023-04-21T13:59:26;19.70;91.80
23385;DHT22;11865;45.394;10.978;2023-04-21T14:01:53;19.60;91.80
23385;DHT22;11865;45.394;10.978;2023-04-21T14:04:21;19.40;91.60
23385;DHT22;11865;45.394;10.978;2023-04-21T14:06:49;19.10;91.70
23385;DHT22;11865;45.394;10.978;2023-04-21T14:09:17;19.10;91.90
23385;DHT22;11865;45.394;10.978;2023-04-21T14:11:44;19.10;91.80
23385;DHT22;11865;45.394;10.978;2023-04-21T14:14:12;19.00;91.80
23385;DHT22;11865;45.394;10.978;2023-04-21T14:16:47;19.10;92.00
23385;DHT22;11865;45.394;10.978;2023-04-21T14:19:16;19.20;92.00
23385;DHT22;11865;45.394;10.978;2023-04-21T14:21:43;19.10;91.70
23385;DHT22;11865;45.394;10.978;2023-04-21T14:24:11;19.00;91.90
23385;DHT22;11865;45.394;10.978;2023-04-21T14:26:38;19.00;91.80
23385;DHT22;11865;45.394;10.978;2023-04-21T14:29:05;18.90;92.20
23385;DHT22;11865;45.394;10.978;2023-04-21T14:31:33;18.90;92.10
23385;DHT22;11865;45.394;10.978;2023-04-21T14:34:00;18.80;91.80
23385;DHT22;11865;45.394;10.978;2023-04-21T14:36:28;19.10;92.80
23385;DHT22;11865;45.394;10.978;2023-04-21T14:38:55;19.10;92.10
23385;DHT22;11865;45.394;10.978;2023-04-21T14:41:23;19.40;92.10
23385;DHT22;11865;45.394;10.978;2023-04-21T14:43:50;19.60;91.20
23385;DHT22;11865;45.394;10.978;2023-04-21T14:46:20;19.80;90.10
23385;DHT22;11865;45.394;10.978;2023-04-21T14:48:47;19.70;89.00
23385;DHT22;11865;45.394;10.978;2023-04-21T14:51:16;19.90;89.50
23385;DHT22;11865;45.394;10.978;2023-04-21T14:53:43;19.80;88.00
23385;DHT22;11865;45.394;10.978;2023-04-21T14:56:11;19.90;89.60
23385;DHT22;11865;45.394;10.978;2023-04-21T14:58:38;19.80;87.90
23385;DHT22;11865;45.394;10.978;2023-04-21T15:01:07;19.90;87.60
23385;DHT22;11865;45.394;10.978;2023-04-21T15:03:34;19.70;89.20
23385;DHT22;11865;45.394;10.978;2023-04-21T15:06:03;19.80;90.20
23385;DHT22;11865;45.394;10.978;2023-04-21T15:08:30;19.80;89.30
23385;DHT22;11865;45.394;10.978;2023-04-21T15:10:58;19.80;89.60
23385;DHT22;11865;45.394;10.978;2023-04-21T15:13:25;19.80;88.70
23385;DHT22;11865;45.394;10.978;2023-04-21T15:15:53;19.80;89.90
23385;DHT22;11865;45.394;10.978;2023-04-21T15:18:20;19.80;88.60
23385;DHT22;11865;45.394;10.978;2023-04-21T15:20:48;19.80;90.60
23385;DHT22;11865;45.394;10.978;2023-04-21T15:23:15;19.90;88.90
23385;DHT22;11865;45.394;10.978;2023-04-21T15:25:43;19.90;90.30
23385;DHT22;11865;45.394;10.978;2023-04-21T15:28:10;20.00;89.60